createdAt,value
2023-04-25T00:00:03.666Z,1165.00
2023-04-25T00:01:03.642Z,1163.00
2023-04-25T00:02:03.628Z,1160.00
2023-04-25T00:03:03.700Z,1156.00
2023-04-25T00:04:03.755Z,1155.00
2023-04-25T00:05:03.664Z,1156.00
2023-04-25T00:06:03.523Z,1153.00
2023-04-25T00:07:03.539Z,1152.00
2023-04-25T00:08:03.466Z,1152.00
2023-04-25T00:09:03.448Z,1151.00
2023-04-25T00:10:03.427Z,1151.00
2023-04-25T00:11:03.458Z,1149.00
2023-04-25T00:12:03.386Z,1149.00
2023-04-25T00:13:03.377Z,1151.00
2023-04-25T00:14:03.340Z,1152.00
2023-04-25T00:15:03.307Z,1155.00
2023-04-25T00:16:03.303Z,1155.00
2023-04-25T00:17:03.260Z,1157.00
2023-04-25T00:18:03.264Z,1155.00
2023-04-25T00:19:03.284Z,1155.00
2023-04-25T00:20:03.407Z,1154.00
2023-04-25T00:21:03.173Z,1153.00
2023-04-25T00:22:03.149Z,1152.00
2023-04-25T00:23:03.124Z,1150.00
2023-04-25T00:24:03.111Z,1152.00
2023-04-25T00:25:03.083Z,1152.00
2023-04-25T00:26:03.063Z,1146.00
2023-04-25T00:27:03.035Z,1146.00
2023-04-25T00:28:03.025Z,1147.00
2023-04-25T00:29:02.995Z,1148.00
2023-04-25T00:30:02.966Z,1148.00
2023-04-25T00:31:03.066Z,1151.00
2023-04-25T00:32:03.082Z,1151.00
2023-04-25T00:33:02.923Z,1151.00
2023-04-25T00:34:02.874Z,1150.00
2023-04-25T00:35:02.841Z,1150.00
2023-04-25T00:36:02.923Z,1149.00
2023-04-25T00:37:02.796Z,1149.00
2023-04-25T00:38:02.766Z,1149.00
2023-04-25T00:39:02.746Z,1150.00
2023-04-25T00:40:02.718Z,1150.00
2023-04-25T00:41:02.691Z,1151.00
2023-04-25T00:42:02.667Z,1151.00
2023-04-25T00:43:02.649Z,1149.00
2023-04-25T00:44:02.619Z,1147.00
2023-04-25T00:45:02.602Z,1146.00
2023-04-25T00:46:02.565Z,1143.00
2023-04-25T00:47:02.593Z,1142.00
2023-04-25T00:48:02.568Z,1141.00
2023-04-25T00:49:02.489Z,1141.00
2023-04-25T00:50:02.463Z,1145.00
2023-04-25T00:51:02.453Z,1145.00
2023-04-25T00:52:02.448Z,1141.00
2023-04-25T00:53:02.443Z,1142.00
2023-04-25T00:54:02.464Z,1143.00
2023-04-25T00:55:02.504Z,1140.00
2023-04-25T00:56:02.455Z,1140.00
2023-04-25T00:57:02.494Z,1141.00
2023-04-25T00:58:02.449Z,1139.00
2023-04-25T00:59:02.448Z,1139.00
2023-04-25T01:00:03.476Z,1138.00
2023-04-25T01:01:02.914Z,1134.00
2023-04-25T01:02:02.460Z,1132.00
2023-04-25T01:03:02.546Z,1135.00
2023-04-25T01:04:02.584Z,1134.00
2023-04-25T01:05:02.435Z,1133.00
2023-04-25T01:06:02.445Z,1132.00
2023-04-25T01:07:02.448Z,1132.00
2023-04-25T01:08:02.452Z,1134.00
2023-04-25T01:09:02.456Z,1136.00
2023-04-25T01:10:02.459Z,1135.00
2023-04-25T01:11:02.525Z,1134.00
2023-04-25T01:12:02.450Z,1135.00
2023-04-25T01:13:02.438Z,1137.00
2023-04-25T01:14:02.454Z,1136.00
2023-04-25T01:15:02.467Z,1134.00
2023-04-25T01:16:02.916Z,1134.00
2023-04-25T01:17:02.488Z,1131.00
2023-04-25T01:18:02.552Z,1129.00
2023-04-25T01:19:02.460Z,1130.00
2023-04-25T01:20:02.447Z,1126.00
2023-04-25T01:21:02.462Z,1127.00
2023-04-25T01:22:02.454Z,1126.00
2023-04-25T01:23:02.456Z,1127.00
2023-04-25T01:24:02.462Z,1128.00
2023-04-25T01:25:02.466Z,1127.00
2023-04-25T01:26:02.481Z,1128.00
2023-04-25T01:27:02.479Z,1127.00
2023-04-25T01:28:02.541Z,1129.00
2023-04-25T01:29:02.490Z,1126.00
2023-04-25T01:30:02.550Z,1124.00
2023-04-25T01:31:02.520Z,1121.00
2023-04-25T01:32:02.548Z,1122.00
2023-04-25T01:33:02.585Z,1121.00
2023-04-25T01:34:02.517Z,1126.00
2023-04-25T01:35:02.532Z,1122.00
2023-04-25T01:36:02.534Z,1118.00
2023-04-25T01:37:02.533Z,1117.00
2023-04-25T01:38:02.548Z,1113.00
2023-04-25T01:39:02.548Z,1112.00
2023-04-25T01:40:02.556Z,1109.00
2023-04-25T01:41:02.572Z,1107.00
2023-04-25T01:42:02.639Z,1106.00
2023-04-25T01:43:02.580Z,1110.00
2023-04-25T01:44:02.579Z,1114.00
2023-04-25T01:45:02.591Z,1112.00
2023-04-25T01:46:02.668Z,1113.00
2023-04-25T01:47:02.599Z,1113.00
2023-04-25T01:48:02.673Z,1111.00
2023-04-25T01:49:02.606Z,1109.00
2023-04-25T01:50:02.600Z,1111.00
2023-04-25T01:51:02.632Z,1112.00
2023-04-25T01:52:02.626Z,1111.00
2023-04-25T01:53:02.632Z,1111.00
2023-04-25T01:54:02.678Z,1111.00
2023-04-25T01:55:02.642Z,1111.00
2023-04-25T01:56:02.638Z,1111.00
2023-04-25T01:57:02.648Z,1111.00
2023-04-25T01:58:02.645Z,1109.00
2023-04-25T01:59:02.656Z,1108.00
2023-04-25T02:00:02.719Z,1109.00
2023-04-25T02:01:02.965Z,1106.00
2023-04-25T02:02:02.659Z,1103.00
2023-04-25T02:03:02.810Z,1105.00
2023-04-25T02:04:02.894Z,1109.00
2023-04-25T02:05:02.696Z,1109.00
2023-04-25T02:06:02.688Z,1110.00
2023-04-25T02:07:02.694Z,1112.00
2023-04-25T02:08:02.775Z,1112.00
2023-04-25T02:09:02.703Z,1113.00
2023-04-25T02:10:03.424Z,1115.00
2023-04-25T02:11:02.707Z,1114.00
2023-04-25T02:12:02.721Z,1110.00
2023-04-25T02:13:02.724Z,1110.00
2023-04-25T02:14:05.515Z,1109.00
2023-04-25T02:15:02.714Z,1109.00
2023-04-25T02:16:02.804Z,1109.00
2023-04-25T02:17:02.751Z,1107.00
2023-04-25T02:18:02.650Z,1104.00
2023-04-25T02:19:02.617Z,1106.00
2023-04-25T02:20:02.595Z,1103.00
2023-04-25T02:21:02.576Z,1104.00
2023-04-25T02:22:02.542Z,1104.00
2023-04-25T02:23:02.514Z,1105.00
2023-04-25T02:24:02.488Z,1108.00
2023-04-25T02:25:02.478Z,1109.00
2023-04-25T02:26:02.432Z,1111.00
2023-04-25T02:27:02.452Z,1112.00
2023-04-25T02:28:02.404Z,1109.00
2023-04-25T02:29:02.382Z,1109.00
2023-04-25T02:30:02.357Z,1109.00
2023-04-25T02:31:02.373Z,1107.00
2023-04-25T02:32:02.301Z,1106.00
2023-04-25T02:33:02.333Z,1106.00
2023-04-25T02:34:02.257Z,1102.00
2023-04-25T02:35:02.232Z,1104.00
2023-04-25T02:36:02.200Z,1104.00
2023-04-25T02:37:02.202Z,1105.00
2023-04-25T02:38:02.160Z,1107.00
2023-04-25T02:39:02.143Z,1109.00
2023-04-25T02:40:02.169Z,1108.00
2023-04-25T02:41:02.086Z,1108.00
2023-04-25T02:42:02.067Z,1106.00
2023-04-25T02:43:02.037Z,1106.00
2023-04-25T02:44:02.009Z,1104.00
2023-04-25T02:45:01.995Z,1103.00
2023-04-25T02:46:01.972Z,1100.00
2023-04-25T02:47:01.964Z,1098.00
2023-04-25T02:48:01.938Z,1101.00
2023-04-25T02:49:01.953Z,1100.00
2023-04-25T02:50:01.884Z,1102.00
2023-04-25T02:51:02.443Z,1103.00
2023-04-25T02:52:01.805Z,1106.00
2023-04-25T02:53:01.846Z,1106.00
2023-04-25T02:54:01.735Z,1106.00
2023-04-25T02:55:01.734Z,1105.00
2023-04-25T02:56:01.762Z,1109.00
2023-04-25T02:57:01.681Z,1110.00
2023-04-25T02:58:01.636Z,1110.00
2023-04-25T02:59:01.632Z,1108.00
2023-04-25T03:00:01.582Z,1103.00
2023-04-25T03:01:01.707Z,1101.00
2023-04-25T03:02:01.531Z,1103.00
2023-04-25T03:03:01.623Z,1103.00
2023-04-25T03:04:01.515Z,1104.00
2023-04-25T03:05:01.473Z,1100.00
2023-04-25T03:06:01.531Z,1102.00
2023-04-25T03:07:01.416Z,1099.00
2023-04-25T03:08:01.378Z,1096.00
2023-04-25T03:09:01.395Z,1092.00
2023-04-25T03:10:01.348Z,1091.00
2023-04-25T03:11:01.318Z,1088.00
2023-04-25T03:12:01.351Z,1087.00
2023-04-25T03:13:01.281Z,1086.00
2023-04-25T03:14:01.256Z,1084.00
2023-04-25T03:15:01.234Z,1081.00
2023-04-25T03:16:01.203Z,1084.00
2023-04-25T03:17:01.270Z,1082.00
2023-04-25T03:18:01.192Z,1082.00
2023-04-25T03:19:01.158Z,1081.00
2023-04-25T03:20:01.133Z,1086.00
2023-04-25T03:21:01.111Z,1084.00
2023-04-25T03:22:01.112Z,1081.00
2023-04-25T03:23:01.077Z,1083.00
2023-04-25T03:24:01.061Z,1083.00
2023-04-25T03:25:01.046Z,1084.00
2023-04-25T03:26:01.037Z,1084.00
2023-04-25T03:27:01.051Z,1085.00
2023-04-25T03:28:01.152Z,1088.00
2023-04-25T03:29:01.083Z,1085.00
2023-04-25T03:30:01.124Z,1080.00
2023-04-25T03:31:01.118Z,1077.00
2023-04-25T03:32:01.134Z,1074.00
2023-04-25T03:33:01.191Z,1075.00
2023-04-25T03:34:01.135Z,1078.00
2023-04-25T03:35:01.147Z,1078.00
2023-04-25T03:36:01.161Z,1079.00
2023-04-25T03:37:01.159Z,1081.00
2023-04-25T03:38:01.174Z,1083.00
2023-04-25T03:39:01.186Z,1084.00
2023-04-25T03:40:01.204Z,1083.00
2023-04-25T03:41:01.210Z,1084.00
2023-04-25T03:42:01.236Z,1080.00
2023-04-25T03:43:01.240Z,1078.00
2023-04-25T03:44:01.254Z,1079.00
2023-04-25T03:45:01.263Z,1078.00
2023-04-25T03:46:01.314Z,1074.00
2023-04-25T03:47:01.296Z,1074.00
2023-04-25T03:48:01.370Z,1071.00
2023-04-25T03:49:01.313Z,1073.00
2023-04-25T03:50:01.331Z,1072.00
2023-04-25T03:51:01.396Z,1069.00
2023-04-25T03:52:01.386Z,1069.00
2023-04-25T03:53:01.410Z,1068.00
2023-04-25T03:54:01.402Z,1071.00
2023-04-25T03:55:01.420Z,1071.00
2023-04-25T03:56:01.451Z,1070.00
2023-04-25T03:57:01.446Z,1071.00
2023-04-25T03:58:01.478Z,1073.00
2023-04-25T03:59:01.478Z,1077.00
2023-04-25T04:00:01.479Z,1075.00
2023-04-25T04:01:01.494Z,1072.00
2023-04-25T04:02:01.542Z,1069.00
2023-04-25T04:03:01.651Z,1068.00
2023-04-25T04:04:01.702Z,1067.00
2023-04-25T04:05:01.798Z,1064.00
2023-04-25T04:06:01.580Z,1064.00
2023-04-25T04:07:01.589Z,1061.00
2023-04-25T04:08:01.611Z,1063.00
2023-04-25T04:09:01.631Z,1060.00
2023-04-25T04:10:01.735Z,1062.00
2023-04-25T04:11:01.669Z,1062.00
2023-04-25T04:12:01.687Z,1063.00
2023-04-25T04:13:01.702Z,1065.00
2023-04-25T04:14:01.728Z,1068.00
2023-04-25T04:15:01.739Z,1069.00
2023-04-25T04:16:01.789Z,1073.00
2023-04-25T04:17:01.761Z,1077.00
2023-04-25T04:18:01.812Z,1076.00
2023-04-25T04:19:01.797Z,1073.00
2023-04-25T04:20:02.516Z,1072.00
2023-04-25T04:21:01.833Z,1071.00
2023-04-25T04:22:01.845Z,1070.00
2023-04-25T04:23:02.476Z,1068.00
2023-04-25T04:24:01.940Z,1067.00
2023-04-25T04:25:01.931Z,1064.00
2023-04-25T04:26:01.921Z,1067.00
2023-04-25T04:27:01.964Z,1068.00
2023-04-25T04:28:01.973Z,1066.00
2023-04-25T04:29:01.969Z,1061.00
2023-04-25T04:30:01.977Z,1062.00
2023-04-25T04:31:02.079Z,1060.00
2023-04-25T04:32:02.061Z,1060.00
2023-04-25T04:33:02.143Z,1059.00
2023-04-25T04:34:02.058Z,1059.00
2023-04-25T04:35:02.069Z,1058.00
2023-04-25T04:36:02.092Z,1059.00
2023-04-25T04:37:02.122Z,1063.00
2023-04-25T04:38:02.153Z,1064.00
2023-04-25T04:39:02.172Z,1066.00
2023-04-25T04:40:02.977Z,1065.00
2023-04-25T04:41:02.262Z,1063.00
2023-04-25T04:42:02.215Z,1060.00
2023-04-25T04:43:02.236Z,1060.00
2023-04-25T04:44:02.250Z,1064.00
2023-04-25T04:45:02.252Z,1062.00
2023-04-25T04:46:02.281Z,1058.00
2023-04-25T04:47:02.413Z,1056.00
2023-04-25T04:48:02.322Z,1056.00
2023-04-25T04:49:02.338Z,1058.00
2023-04-25T04:50:02.490Z,1058.00
2023-04-25T04:51:02.984Z,1056.00
2023-04-25T04:52:02.383Z,1057.00
2023-04-25T04:53:02.401Z,1057.00
2023-04-25T04:54:02.485Z,1059.00
2023-04-25T04:55:02.450Z,1062.00
2023-04-25T04:56:02.471Z,1062.00
2023-04-25T04:57:02.486Z,1059.00
2023-04-25T04:58:02.500Z,1059.00
2023-04-25T04:59:02.520Z,1058.00
2023-04-25T05:00:02.533Z,1057.00
2023-04-25T05:01:02.627Z,1057.00
2023-04-25T05:02:02.587Z,1054.00
2023-04-25T05:03:02.714Z,1053.00
2023-04-25T05:04:03.612Z,1050.00
2023-04-25T05:05:02.646Z,1046.00
2023-04-25T05:06:02.664Z,1047.00
2023-04-25T05:07:02.695Z,1046.00
2023-04-25T05:08:02.697Z,1046.00
2023-04-25T05:09:02.723Z,1045.00
2023-04-25T05:10:02.757Z,1045.00
2023-04-25T05:11:02.764Z,1045.00
2023-04-25T05:12:02.792Z,1045.00
2023-04-25T05:13:02.805Z,1045.00
2023-04-25T05:14:02.837Z,1045.00
2023-04-25T05:15:02.852Z,1046.00
2023-04-25T05:16:02.879Z,1045.00
2023-04-25T05:17:03.058Z,1045.00
2023-04-25T05:18:02.962Z,1046.00
2023-04-25T05:19:03.491Z,1048.00
2023-04-25T05:20:02.932Z,1048.00
2023-04-25T05:21:02.986Z,1051.00
2023-04-25T05:22:02.980Z,1051.00
2023-04-25T05:23:03.005Z,1050.00
2023-04-25T05:24:03.033Z,1059.00
2023-04-25T05:25:03.057Z,1071.00
2023-04-25T05:26:03.066Z,1074.00
2023-04-25T05:27:03.062Z,1166.00
2023-04-25T05:28:03.062Z,1174.00
2023-04-25T05:29:03.128Z,1189.00
2023-04-25T05:30:03.070Z,1235.00
2023-04-25T05:31:03.069Z,1257.00
2023-04-25T05:32:03.089Z,1280.00
2023-04-25T05:33:03.129Z,1390.00
2023-04-25T05:34:03.077Z,1416.00
2023-04-25T05:35:03.097Z,1436.00
2023-04-25T05:36:03.004Z,1468.00
2023-04-25T05:37:02.986Z,1501.00
2023-04-25T05:38:03.921Z,1560.00
2023-04-25T05:39:02.933Z,1576.00
2023-04-25T05:40:02.958Z,1602.00
2023-04-25T05:41:03.009Z,1634.00
2023-04-25T05:42:02.916Z,1663.00
2023-04-25T05:43:02.970Z,1703.00
2023-04-25T05:44:02.947Z,1732.00
2023-04-25T05:45:02.992Z,1760.00
2023-04-25T05:46:03.098Z,1825.00
2023-04-25T05:47:03.085Z,1850.00
2023-04-25T05:48:03.111Z,1871.00
2023-04-25T05:49:03.125Z,1910.00
2023-04-25T05:50:03.223Z,1935.00
2023-04-25T05:51:03.271Z,1957.00
2023-04-25T05:52:03.327Z,2006.00
2023-04-25T05:53:03.266Z,2047.00
2023-04-25T05:54:03.296Z,2069.00
2023-04-25T05:55:03.311Z,2103.00
2023-04-25T05:56:03.373Z,2140.00
2023-04-25T05:57:03.353Z,2172.00
2023-04-25T05:58:03.373Z,2193.00
2023-04-25T05:59:03.383Z,2228.00
2023-04-25T06:00:03.436Z,2265.00
2023-04-25T06:01:03.428Z,2286.00
2023-04-25T06:02:03.500Z,2299.00
2023-04-25T06:03:03.609Z,2318.00
2023-04-25T06:04:03.868Z,2343.00
2023-04-25T06:05:03.608Z,2378.00
2023-04-25T06:06:03.600Z,2428.00
2023-04-25T06:07:03.506Z,2451.00
2023-04-25T06:08:03.505Z,2466.00
2023-04-25T06:09:03.495Z,2485.00
2023-04-25T06:10:03.500Z,2508.00
2023-04-25T06:11:03.573Z,2525.00
2023-04-25T06:12:03.487Z,2540.00
2023-04-25T06:13:03.477Z,2593.00
2023-04-25T06:14:03.482Z,2634.00
2023-04-25T06:15:04.803Z,2645.00
2023-04-25T06:16:03.533Z,2662.00
2023-04-25T06:17:03.403Z,2678.00
2023-04-25T06:18:03.453Z,2696.00
2023-04-25T06:19:03.316Z,2710.00
2023-04-25T06:20:05.696Z,2727.00
2023-04-25T06:21:03.236Z,2738.00
2023-04-25T06:22:03.208Z,2739.00
2023-04-25T06:23:03.170Z,2724.00
2023-04-25T06:24:03.140Z,2720.00
2023-04-25T06:25:04.054Z,2714.00
2023-04-25T06:26:03.071Z,2708.00
2023-04-25T06:27:03.017Z,2700.00
2023-04-25T06:28:03.085Z,2694.00
2023-04-25T06:29:03.012Z,2686.00
2023-04-25T06:30:02.961Z,2685.00
2023-04-25T06:31:02.939Z,2690.00
2023-04-25T06:32:02.846Z,2695.00
2023-04-25T06:33:02.872Z,2695.00
2023-04-25T06:34:02.789Z,2692.00
2023-04-25T06:35:02.744Z,2691.00
2023-04-25T06:36:02.718Z,2692.00
2023-04-25T06:37:02.677Z,2691.00
2023-04-25T06:38:02.655Z,2684.00
2023-04-25T06:39:02.627Z,2676.00
2023-04-25T06:40:03.544Z,2670.00
2023-04-25T06:41:02.546Z,2663.00
2023-04-25T06:42:02.530Z,2660.00
2023-04-25T06:43:02.507Z,2659.00
2023-04-25T06:44:02.455Z,2655.00
2023-04-25T06:45:02.436Z,2652.00
2023-04-25T06:46:02.401Z,2647.00
2023-04-25T06:47:02.438Z,2646.00
2023-04-25T06:48:02.375Z,2646.00
2023-04-25T06:49:02.299Z,2647.00
2023-04-25T06:50:02.268Z,2647.00
2023-04-25T06:51:02.315Z,2645.00
2023-04-25T06:52:02.261Z,2640.00
2023-04-25T06:53:02.258Z,2641.00
2023-04-25T06:54:02.257Z,2636.00
2023-04-25T06:55:02.270Z,2634.00
2023-04-25T06:56:02.267Z,2635.00
2023-04-25T06:57:02.240Z,2632.00
2023-04-25T06:58:02.268Z,2631.00
2023-04-25T06:59:02.240Z,2629.00
2023-04-25T07:00:02.622Z,2624.00
2023-04-25T07:01:02.268Z,2623.00
2023-04-25T07:02:02.211Z,2619.00
2023-04-25T07:03:02.339Z,2615.00
2023-04-25T07:04:02.448Z,2610.00
2023-04-25T07:05:02.248Z,2601.00
2023-04-25T07:06:02.253Z,2600.00
2023-04-25T07:07:02.237Z,2596.00
2023-04-25T07:08:02.226Z,2593.00
2023-04-25T07:09:02.200Z,2595.00
2023-04-25T07:10:02.314Z,2591.00
2023-04-25T07:11:03.034Z,2588.00
2023-04-25T07:12:02.144Z,2583.00
2023-04-25T07:13:02.177Z,2581.00
2023-04-25T07:14:02.218Z,2581.00
2023-04-25T07:15:02.098Z,2584.00
2023-04-25T07:16:02.136Z,2585.00
2023-04-25T07:17:02.175Z,2586.00
2023-04-25T07:18:02.108Z,2584.00
2023-04-25T07:19:02.043Z,2579.00
2023-04-25T07:20:02.035Z,2574.00
2023-04-25T07:21:02.010Z,2573.00
2023-04-25T07:22:01.994Z,2575.00
2023-04-25T07:23:01.979Z,2605.00
2023-04-25T07:24:01.942Z,2626.00
2023-04-25T07:25:01.942Z,2656.00
2023-04-25T07:26:01.962Z,2749.00
2023-04-25T07:27:01.998Z,2763.00
2023-04-25T07:28:02.040Z,2786.00
2023-04-25T07:29:02.067Z,2806.00
2023-04-25T07:30:02.089Z,2829.00
2023-04-25T07:31:02.110Z,2851.00
2023-04-25T07:32:02.205Z,2874.00
2023-04-25T07:33:02.207Z,2908.00
2023-04-25T07:34:02.367Z,2967.00
2023-04-25T07:35:02.189Z,3000.00
2023-04-25T07:36:02.198Z,3027.00
2023-04-25T07:37:02.211Z,3077.00
2023-04-25T07:38:02.223Z,3099.00
2023-04-25T07:39:02.239Z,3121.00
2023-04-25T07:40:02.257Z,3147.00
2023-04-25T07:41:02.239Z,3174.00
2023-04-25T07:42:02.244Z,3201.00
2023-04-25T07:43:02.243Z,3231.00
2023-04-25T07:44:02.243Z,3254.00
2023-04-25T07:45:02.247Z,3282.00
2023-04-25T07:46:02.276Z,3322.00
2023-04-25T07:47:04.382Z,3346.00
2023-04-25T07:48:02.286Z,3370.00
2023-04-25T07:49:02.202Z,3391.00
2023-04-25T07:50:02.186Z,3413.00
2023-04-25T07:51:02.166Z,3449.00
2023-04-25T07:52:02.215Z,3484.00
2023-04-25T07:53:02.146Z,3514.00
2023-04-25T07:54:02.120Z,3543.00
2023-04-25T07:55:02.100Z,3565.00
2023-04-25T07:56:02.142Z,3595.00
2023-04-25T07:57:02.056Z,3617.00
2023-04-25T07:58:02.054Z,3637.00
2023-04-25T07:59:02.052Z,3652.00
2023-04-25T08:00:02.030Z,3670.00
2023-04-25T08:01:01.985Z,3699.00
2023-04-25T08:02:01.969Z,3725.00
2023-04-25T08:03:02.000Z,3743.00
2023-04-25T08:04:02.195Z,3763.00
2023-04-25T08:05:02.046Z,3788.00
2023-04-25T08:06:04.841Z,3810.00
2023-04-25T08:07:02.803Z,3828.00
2023-04-25T08:08:01.781Z,3843.00
2023-04-25T08:09:01.751Z,3868.00
2023-04-25T08:10:01.710Z,3896.00
2023-04-25T08:11:01.657Z,3975.00
2023-04-25T08:12:01.636Z,3988.00
2023-04-25T08:13:01.591Z,3968.00
2023-04-25T08:14:01.559Z,3851.00
2023-04-25T08:15:01.529Z,3826.00
2023-04-25T08:16:01.512Z,3043.00
2023-04-25T08:17:01.447Z,2524.00
2023-04-25T08:18:01.476Z,2346.00
2023-04-25T08:19:02.056Z,2355.00
2023-04-25T08:20:01.367Z,1942.00
2023-04-25T08:21:01.422Z,1575.00
2023-04-25T08:22:01.338Z,1247.00
2023-04-25T08:23:01.357Z,1180.00
2023-04-25T08:24:01.374Z,1182.00
2023-04-25T08:25:01.455Z,1192.00
2023-04-25T08:26:01.440Z,1215.00
2023-04-25T08:27:01.487Z,1288.00
2023-04-25T08:28:03.007Z,1278.00
2023-04-25T08:29:01.501Z,1257.00
2023-04-25T08:30:01.498Z,1244.00
2023-04-25T08:31:02.072Z,1248.00
2023-04-25T08:32:02.063Z,1258.00
2023-04-25T08:33:01.485Z,1346.00
2023-04-25T08:34:01.435Z,1368.00
2023-04-25T08:35:01.479Z,1369.00
2023-04-25T08:36:01.486Z,1389.00
2023-04-25T08:37:02.090Z,1459.00
2023-04-25T08:38:02.073Z,1466.00
2023-04-25T08:39:01.562Z,1474.00
2023-04-25T08:40:01.595Z,1341.00
2023-04-25T08:41:01.636Z,1300.00
2023-04-25T08:42:01.651Z,1283.00
2023-04-25T08:43:01.724Z,1341.00
2023-04-25T08:44:01.809Z,1386.00
2023-04-25T08:45:02.927Z,1433.00
2023-04-25T08:46:01.878Z,1410.00
2023-04-25T08:47:01.928Z,1424.00
2023-04-25T08:48:01.934Z,1436.00
2023-04-25T08:49:01.921Z,1441.00
2023-04-25T08:50:01.940Z,1438.00
2023-04-25T08:51:01.945Z,1421.00
2023-04-25T08:52:01.963Z,1428.00
2023-04-25T08:53:02.003Z,1408.00
2023-04-25T08:54:08.868Z,1410.00
2023-04-25T08:55:02.960Z,1463.00
2023-04-25T08:56:01.940Z,1475.00
2023-04-25T08:57:01.893Z,1400.00
2023-04-25T08:58:01.854Z,1432.00
2023-04-25T08:59:01.820Z,1412.00
2023-04-25T09:00:01.812Z,1387.00
2023-04-25T09:01:02.598Z,1235.00
2023-04-25T09:02:01.861Z,1293.00
2023-04-25T09:03:01.966Z,1294.00
2023-04-25T09:04:01.844Z,1394.00
2023-04-25T09:05:01.721Z,1423.00
2023-04-25T09:06:01.627Z,1271.00
2023-04-25T09:07:01.598Z,1396.00
2023-04-25T09:08:01.656Z,1340.00
2023-04-25T09:09:01.648Z,1311.00
2023-04-25T09:10:01.544Z,1401.00
2023-04-25T09:11:01.559Z,1403.00
2023-04-25T09:12:01.575Z,1403.00
2023-04-25T09:13:01.586Z,1405.00
2023-04-25T09:14:01.589Z,1403.00
2023-04-25T09:15:01.573Z,1411.00
2023-04-25T09:16:01.611Z,1376.00
2023-04-25T09:17:01.701Z,1094.00
2023-04-25T09:18:01.668Z,978.00
2023-04-25T09:19:01.741Z,998.00
2023-04-25T09:20:01.730Z,1034.00
2023-04-25T09:21:04.214Z,1026.00
2023-04-25T09:22:02.726Z,1007.00
2023-04-25T09:23:02.727Z,1002.00
2023-04-25T09:24:01.692Z,1110.00
2023-04-25T09:25:01.683Z,1122.00
2023-04-25T09:26:01.655Z,1120.00
2023-04-25T09:27:01.630Z,1162.00
2023-04-25T09:28:01.616Z,1211.00
2023-04-25T09:29:01.628Z,1311.00
2023-04-25T09:30:01.562Z,1337.00
2023-04-25T09:31:01.587Z,1373.00
2023-04-25T09:32:01.532Z,1401.00
2023-04-25T09:33:01.463Z,1417.00
2023-04-25T09:34:01.808Z,1476.00
2023-04-25T09:35:01.525Z,1490.00
2023-04-25T09:36:01.404Z,1513.00
2023-04-25T09:37:01.354Z,1590.00
2023-04-25T09:38:01.324Z,1623.00
2023-04-25T09:39:01.285Z,1652.00
2023-04-25T09:40:01.270Z,1741.00
2023-04-25T09:41:01.218Z,1758.00
2023-04-25T09:42:01.189Z,1776.00
2023-04-25T09:43:01.166Z,1790.00
2023-04-25T09:44:01.642Z,1822.00
2023-04-25T09:45:02.079Z,1909.00
2023-04-25T09:46:01.085Z,1932.00
2023-04-25T09:47:01.024Z,1951.00
2023-04-25T09:48:01.025Z,1968.00
2023-04-25T09:49:00.964Z,2017.00
2023-04-25T09:50:00.946Z,2050.00
2023-04-25T09:51:00.886Z,2082.00
2023-04-25T09:52:00.862Z,2118.00
2023-04-25T09:53:00.826Z,2156.00
2023-04-25T09:54:00.794Z,2193.00
2023-04-25T09:55:00.757Z,2269.00
2023-04-25T09:56:00.745Z,2288.00
2023-04-25T09:57:00.693Z,2316.00
2023-04-25T09:58:00.705Z,2369.00
2023-04-25T09:59:00.741Z,2395.00
2023-04-25T10:00:01.130Z,2426.00
2023-04-25T10:01:00.829Z,2453.00
2023-04-25T10:02:00.838Z,2479.00
2023-04-25T10:03:00.971Z,2502.00
2023-04-25T10:04:01.152Z,2535.00
2023-04-25T10:05:00.927Z,2562.00
2023-04-25T10:06:01.029Z,2606.00
2023-04-25T10:07:00.972Z,2654.00
2023-04-25T10:08:01.005Z,2675.00
2023-04-25T10:09:01.030Z,2696.00
2023-04-25T10:10:01.073Z,2801.00
2023-04-25T10:11:01.261Z,2848.00
2023-04-25T10:12:01.093Z,2881.00
2023-04-25T10:13:01.096Z,2910.00
2023-04-25T10:14:01.127Z,2913.00
2023-04-25T10:15:01.172Z,2865.00
2023-04-25T10:16:01.281Z,2858.00
2023-04-25T10:17:01.290Z,2854.00
2023-04-25T10:18:01.256Z,2853.00
2023-04-25T10:19:01.277Z,2849.00
2023-04-25T10:20:01.296Z,2840.00
2023-04-25T10:21:01.333Z,2829.00
2023-04-25T10:22:01.606Z,2819.00
2023-04-25T10:23:01.360Z,2816.00
2023-04-25T10:24:01.338Z,2797.00
2023-04-25T10:25:01.336Z,2793.00
2023-04-25T10:26:01.308Z,2788.00
2023-04-25T10:27:01.273Z,2787.00
2023-04-25T10:28:01.242Z,2787.00
2023-04-25T10:29:01.208Z,2781.00
2023-04-25T10:30:01.182Z,2778.00
2023-04-25T10:31:01.295Z,2777.00
2023-04-25T10:32:01.160Z,2773.00
2023-04-25T10:33:01.103Z,2771.00
2023-04-25T10:34:01.080Z,2762.00
2023-04-25T10:35:01.065Z,2753.00
2023-04-25T10:36:01.038Z,2751.00
2023-04-25T10:37:01.019Z,2748.00
2023-04-25T10:38:01.013Z,2747.00
2023-04-25T10:39:00.984Z,2742.00
2023-04-25T10:40:00.991Z,2725.00
2023-04-25T10:41:00.972Z,2720.00
2023-04-25T10:42:00.949Z,2718.00
2023-04-25T10:43:00.938Z,2721.00
2023-04-25T10:44:00.936Z,2719.00
2023-04-25T10:45:01.194Z,2712.00
2023-04-25T10:46:00.916Z,2708.00
2023-04-25T10:47:01.004Z,2696.00
2023-04-25T10:48:01.015Z,2685.00
2023-04-25T10:49:00.902Z,2681.00
2023-04-25T10:50:00.896Z,2678.00
2023-04-25T10:51:00.896Z,2671.00
2023-04-25T10:52:00.900Z,2664.00
2023-04-25T10:53:00.901Z,2653.00
2023-04-25T10:54:00.890Z,2647.00
2023-04-25T10:55:00.965Z,2639.00
2023-04-25T10:56:00.933Z,2634.00
2023-04-25T10:57:00.863Z,2629.00
2023-04-25T10:58:00.926Z,2624.00
2023-04-25T10:59:00.921Z,2614.00
2023-04-25T11:00:01.140Z,2605.00
2023-04-25T11:01:00.867Z,2599.00
2023-04-25T11:02:00.955Z,2599.00
2023-04-25T11:03:00.977Z,2596.00
2023-04-25T11:04:00.963Z,2590.00
2023-04-25T11:05:00.827Z,2584.00
2023-04-25T11:06:00.823Z,2581.00
2023-04-25T11:07:06.581Z,2581.00
2023-04-25T11:08:07.795Z,2577.00
2023-04-25T11:09:01.760Z,2583.00
2023-04-25T11:10:00.730Z,2576.00
2023-04-25T11:11:00.744Z,2569.00
2023-04-25T11:12:00.658Z,2563.00
2023-04-25T11:13:00.623Z,2560.00
2023-04-25T11:14:00.591Z,2556.00
2023-04-25T11:15:00.806Z,2550.00
2023-04-25T11:16:07.612Z,2542.00
2023-04-25T11:17:01.610Z,2540.00
2023-04-25T11:18:00.479Z,2538.00
2023-04-25T11:19:00.402Z,2528.00
2023-04-25T11:20:00.374Z,2521.00
2023-04-25T11:21:00.351Z,2511.00
2023-04-25T11:22:00.308Z,2511.00
2023-04-25T11:23:00.262Z,2509.00
2023-04-25T11:24:00.334Z,2508.00
2023-04-25T11:25:00.210Z,2511.00
2023-04-25T11:26:00.184Z,2508.00
2023-04-25T11:27:00.266Z,2500.00
2023-04-25T11:28:00.102Z,2492.00
2023-04-25T11:29:00.136Z,2490.00
2023-04-25T11:30:00.079Z,2481.00
2023-04-25T11:31:00.008Z,2481.00
2023-04-25T11:32:00.003Z,2478.00
2023-04-25T11:33:00.007Z,2476.00
2023-04-25T11:33:59.921Z,2470.00
2023-04-25T11:34:59.881Z,2467.00
2023-04-25T11:35:59.855Z,2464.00
2023-04-25T11:36:59.830Z,2462.00
2023-04-25T11:37:59.803Z,2458.00
2023-04-25T11:38:59.782Z,2459.00
2023-04-25T11:39:59.731Z,2457.00
2023-04-25T11:40:59.697Z,2459.00
2023-04-25T11:42:01.370Z,2457.00
2023-04-25T11:42:59.622Z,2454.00
2023-04-25T11:43:59.593Z,2448.00
2023-04-25T11:44:59.563Z,2445.00
2023-04-25T11:45:59.600Z,2443.00
2023-04-25T11:46:59.551Z,2438.00
2023-04-25T11:47:59.560Z,2430.00
2023-04-25T11:48:59.516Z,2422.00
2023-04-25T11:49:59.502Z,2419.00
2023-04-25T11:50:59.489Z,2419.00
2023-04-25T11:52:00.162Z,2418.00
2023-04-25T11:52:59.470Z,2421.00
2023-04-25T11:53:59.451Z,2419.00
2023-04-25T11:54:59.444Z,2415.00
2023-04-25T11:55:59.498Z,2407.00
2023-04-25T11:56:59.429Z,2406.00
2023-04-25T11:57:59.408Z,2398.00
2023-04-25T11:58:59.396Z,2396.00
2023-04-25T11:59:59.378Z,2395.00
2023-04-25T12:00:59.362Z,2395.00
2023-04-25T12:01:59.352Z,2390.00
2023-04-25T12:02:59.789Z,2385.00
2023-04-25T12:03:59.454Z,2381.00
2023-04-25T12:05:11.782Z,2376.00